Wilna, New York
Current Conditions -  °F | °C
As of 7:58 PM on Tuesday 21 Oct 2014 (Local Time) from KGTB Reporting Station
Overcast Overcast  
Wind Chill: 35°   Ceiling: 400
Heat Index: 43°   Visibility: 9mi
Dew Point: 43°   Wind: 15mph
Humidity: 100%   Direction: 40°NE
Pressure: 30.02"   Gusts: 22mph
Location:  43.9769°N, 75.558°W
Report Text: KGTB 212358Z AUTO 04013G19KT 9SM OVC004 06/06 A3002 RMK AO2 SLP170 60000 T00600060 10089 20060 52023
Loading
Personal Weather Stations






























Interactive Weather Map
Tropical Storm Tracking
New forecast layout! Learn more

10-Day Weather Forecast

Advertisements
Track Severe Weather on mobile